Terminal Aerodrome Forecast
Issued by NWS

Current Version | Previous Version | Text Only | Print | Product List | Glossary On
Versions: 1 2 3 4 5 6 7 8 9 10 11 12 13 14 15 16 17 18 19
265
FTUS46 KSEW 241736
TAFOLM
TAF
KOLM 241736Z 2418/2518 02008KT P6SM SKC
     FM250600 VRB03KT P6SM SKC
     FM251200 VRB03KT 5SM BCFG FEW002
      TEMPO 2512/2515 2SM BCFG
     FM251600 VRB03KT P6SM FEW006=

USA.gov is the U.S. government's official web portal to all federal, state and local government web resources and services.